createdAt,value
2023-04-16T00:02:20.929Z,8.72
2023-04-16T00:16:32.101Z,8.84
2023-04-16T00:30:40.334Z,8.89
2023-04-16T00:44:52.133Z,8.9
2023-04-16T00:59:04.990Z,8.86
2023-04-16T01:13:17.384Z,8.85
2023-04-16T01:27:29.716Z,8.84
2023-04-16T07:36:55.803Z,9.41
2023-04-16T07:43:36.814Z,9.35
2023-04-16T07:44:40.867Z,9.36
2023-04-16T07:45:44.821Z,9.38
2023-04-16T07:46:47.760Z,9.45
2023-04-16T07:47:51.148Z,9.48
2023-04-16T07:48:55.047Z,9.52
2023-04-16T07:58:25.494Z,9.40
2023-04-16T07:59:28.077Z,9.38
2023-04-16T08:00:32.041Z,9.39
2023-04-16T08:01:34.329Z,9.43
2023-04-16T08:02:38.557Z,9.45
2023-04-16T08:03:42.320Z,9.48
2023-04-16T08:13:12.510Z,9.28
2023-04-16T08:15:18.888Z,9.34
2023-04-16T08:16:21.416Z,9.35
2023-04-16T08:17:23.824Z,9.38
2023-04-16T08:18:27.830Z,9.40
2023-04-16T08:19:30.041Z,9.44
2023-04-16T08:20:32.498Z,9.47
2023-04-16T08:21:36.544Z,9.49
2023-04-16T08:23:41.267Z,9.50
2023-04-16T08:24:43.625Z,9.52
2023-04-16T08:27:53.872Z,9.57
2023-04-16T08:28:56.326Z,9.59
2023-04-16T08:31:04.357Z,9.61
2023-04-16T08:40:35.882Z,9.41
2023-04-16T08:41:39.847Z,9.44
2023-04-16T08:42:43.815Z,9.47
2023-04-16T08:43:47.708Z,9.52
2023-04-16T08:44:49.953Z,9.55
2023-04-16T08:45:52.249Z,9.59
2023-04-16T08:46:54.767Z,9.63
2023-04-16T08:49:01.067Z,9.64
2023-04-16T08:50:05.018Z,9.68
2023-04-16T08:51:07.288Z,9.70
2023-04-16T08:52:11.392Z,9.72
2023-04-16T08:53:13.643Z,9.73
2023-04-16T08:54:16.045Z,9.75
2023-04-16T08:55:18.516Z,9.77
2023-04-16T08:56:20.929Z,9.76
2023-04-16T08:57:24.974Z,9.78
2023-04-16T08:58:27.265Z,9.79
2023-04-16T08:59:29.684Z,9.81
2023-04-16T09:00:32.122Z,9.80
2023-04-16T09:04:43.366Z,9.82
2023-04-16T09:06:49.587Z,9.84
2023-04-16T09:07:52.043Z,9.86
2023-04-16T09:11:02.405Z,9.87
2023-04-16T09:20:32.601Z,9.65
2023-04-16T09:21:35.074Z,9.67
2023-04-16T09:22:37.556Z,9.71
2023-04-16T09:23:41.625Z,9.73
2023-04-16T09:24:43.963Z,9.80
2023-04-16T09:25:46.392Z,9.83
2023-04-16T09:26:48.868Z,9.89
2023-04-16T09:27:52.864Z,9.85
2023-04-16T09:28:56.778Z,9.88
2023-04-16T09:29:59.098Z,9.92
2023-04-16T09:31:03.261Z,9.96
2023-04-16T09:32:07.413Z,9.99
2023-04-16T09:33:11.229Z,10.04
2023-04-16T09:34:15.130Z,10.09
2023-04-16T09:35:17.433Z,10.15
2023-04-16T09:36:21.493Z,10.18
2023-04-16T09:37:23.764Z,10.21
2023-04-16T09:44:51.383Z,10.40
2023-04-16T09:45:50.666Z,10.41
2023-04-16T09:46:54.610Z,10.46
2023-04-16T09:47:56.931Z,10.47
2023-04-16T09:49:00.925Z,10.51
2023-04-16T09:50:03.204Z,10.53
2023-04-16T09:51:05.670Z,10.52
2023-04-16T09:52:08.149Z,10.57
2023-04-16T09:53:10.563Z,10.61
2023-04-16T09:55:17.156Z,10.64
2023-04-16T09:56:21.094Z,10.68
2023-04-16T09:57:24.990Z,10.70
2023-04-16T09:58:28.839Z,10.69
2023-04-16T09:59:31.254Z,10.75
2023-04-16T10:00:33.684Z,10.76
2023-04-16T10:01:36.151Z,10.80
2023-04-16T10:02:38.647Z,10.79
2023-04-16T10:03:41.206Z,10.80
2023-04-16T10:04:45.232Z,10.79
2023-04-16T10:05:47.558Z,10.83
2023-04-16T10:06:50.031Z,10.78
2023-04-16T10:07:54.066Z,10.82
2023-04-16T10:10:01.829Z,10.81
2023-04-16T10:11:04.210Z,10.83
2023-04-16T10:12:08.229Z,10.85
2023-04-16T10:13:10.564Z,10.87
2023-04-16T10:14:13.019Z,10.89
2023-04-16T10:16:20.898Z,10.90
2023-04-16T10:17:23.151Z,10.92
2023-04-16T10:18:27.189Z,10.89
2023-04-16T10:19:29.454Z,10.91
2023-04-16T10:20:33.504Z,10.90
2023-04-16T10:21:37.429Z,10.92
2023-04-16T10:23:43.796Z,10.91
2023-04-16T10:24:47.712Z,10.92
2023-04-16T10:25:51.703Z,10.95
2023-04-16T10:26:53.976Z,10.91
2023-04-16T10:27:56.416Z,10.94
2023-04-16T10:29:00.507Z,10.93
2023-04-16T10:30:04.463Z,10.91
2023-04-16T10:31:08.391Z,10.94
2023-04-16T10:32:12.209Z,10.91
2023-04-16T10:33:14.526Z,10.92
2023-04-16T10:34:18.568Z,10.93
2023-04-16T10:35:20.904Z,10.92
2023-04-16T10:36:23.253Z,10.91
2023-04-16T10:37:27.328Z,10.90
2023-04-16T10:38:29.641Z,10.92
2023-04-16T10:41:38.538Z,10.93
2023-04-16T10:42:42.592Z,10.92
2023-04-16T10:43:44.906Z,10.94
2023-04-16T10:44:47.328Z,10.97
2023-04-16T10:46:52.206Z,10.98
2023-04-16T10:47:54.695Z,10.99
2023-04-16T10:50:01.145Z,11.01
2023-04-16T10:51:05.243Z,11.03
2023-04-16T10:52:07.555Z,11.07
2023-04-16T10:53:11.589Z,11.10
2023-04-16T10:54:15.470Z,11.15
2023-04-16T10:55:17.714Z,11.18
2023-04-16T10:56:21.823Z,11.21
2023-04-16T10:57:25.672Z,11.20
2023-04-16T10:58:29.627Z,11.24
2023-04-16T10:59:31.938Z,11.30
2023-04-16T11:00:35.941Z,11.36
2023-04-16T11:01:39.954Z,11.41
2023-04-16T11:02:42.351Z,11.44
2023-04-16T11:03:44.771Z,11.41
2023-04-16T11:04:47.255Z,11.45
2023-04-16T11:05:51.228Z,11.44
2023-04-16T11:06:53.543Z,11.46
2023-04-16T11:07:57.616Z,11.48
2023-04-16T11:08:59.906Z,11.54
2023-04-16T11:10:03.965Z,11.58
2023-04-16T11:11:06.245Z,11.62
2023-04-16T11:12:08.708Z,11.64
2023-04-16T11:13:11.146Z,11.66
2023-04-16T11:14:15.238Z,11.61
2023-04-16T11:15:17.606Z,11.64
2023-04-16T11:16:20.064Z,11.65
2023-04-16T11:17:24.139Z,11.66
2023-04-16T11:18:28.030Z,11.65
2023-04-16T11:20:34.434Z,11.67
2023-04-16T11:21:36.712Z,11.68
2023-04-16T11:23:44.604Z,11.66
2023-04-16T11:24:48.486Z,11.64
2023-04-16T11:25:52.290Z,11.61
2023-04-16T11:27:58.615Z,11.55
2023-04-16T11:29:00.988Z,11.53
2023-04-16T11:30:03.273Z,11.51
2023-04-16T11:31:07.330Z,11.47
2023-04-16T11:32:11.301Z,11.45
2023-04-16T11:33:13.552Z,11.44
2023-04-16T11:34:17.521Z,11.40
2023-04-16T11:37:26.076Z,11.39
2023-04-16T11:38:30.138Z,11.38
2023-04-16T11:39:32.409Z,11.36
2023-04-16T11:41:38.750Z,11.37
2023-04-16T11:42:42.842Z,11.35
2023-04-16T11:44:49.119Z,11.33
2023-04-16T11:45:51.413Z,11.32
2023-04-16T11:46:54.799Z,11.31
2023-04-16T11:47:57.119Z,11.29
2023-04-16T11:48:59.463Z,11.31
2023-04-16T11:50:01.921Z,11.28
2023-04-16T11:51:04.318Z,11.27
2023-04-16T11:52:06.806Z,11.26
2023-04-16T11:53:09.323Z,11.23
2023-04-16T11:54:12.280Z,11.21
2023-04-16T11:55:15.649Z,11.22
2023-04-16T11:56:17.973Z,11.23
2023-04-16T11:57:20.392Z,11.25
2023-04-16T11:59:26.770Z,11.26
2023-04-16T12:00:30.707Z,11.27
2023-04-16T12:01:33.140Z,11.28
2023-04-16T12:02:37.530Z,11.27
2023-04-16T12:03:41.531Z,11.28
2023-04-16T12:04:43.671Z,11.30
2023-04-16T12:05:47.720Z,11.31
2023-04-16T12:06:49.977Z,11.33
2023-04-16T12:08:56.372Z,11.32
2023-04-16T12:09:58.808Z,11.31
2023-04-16T12:11:01.221Z,11.30
2023-04-16T12:13:06.085Z,11.28
2023-04-16T12:14:08.561Z,11.29
2023-04-16T12:15:11.105Z,11.30
2023-04-16T12:16:13.556Z,11.31
2023-04-16T12:17:17.578Z,11.34
2023-04-16T12:18:21.611Z,11.36
2023-04-16T12:19:25.506Z,11.38
2023-04-16T12:20:27.869Z,11.39
2023-04-16T12:21:30.273Z,11.42
2023-04-16T12:22:36.030Z,11.41
2023-04-16T12:23:38.261Z,11.40
2023-04-16T12:24:42.163Z,11.45
2023-04-16T12:27:53.224Z,11.48
2023-04-16T12:29:55.723Z,11.49
2023-04-16T12:30:59.811Z,11.50
2023-04-16T12:32:02.087Z,11.51
2023-04-16T12:33:04.539Z,11.52
2023-04-16T12:34:07.003Z,11.51
2023-04-16T12:35:09.387Z,11.53
2023-04-16T12:44:41.727Z,11.27
2023-04-16T12:45:44.283Z,11.29
2023-04-16T12:46:51.604Z,11.33
2023-04-16T12:47:53.888Z,11.35
2023-04-16T12:48:56.381Z,11.41
2023-04-16T12:50:00.374Z,11.44
2023-04-16T12:51:04.330Z,11.48
2023-04-16T12:52:06.594Z,11.51
2023-04-16T12:53:10.646Z,11.55
2023-04-16T12:54:12.995Z,11.59
2023-04-16T12:55:17.087Z,11.61
2023-04-16T12:56:20.963Z,11.64
2023-04-16T12:57:23.196Z,11.70
2023-04-16T12:58:27.310Z,11.71
2023-04-16T12:59:29.528Z,11.75
2023-04-16T13:00:32.060Z,11.77
2023-04-16T13:01:34.532Z,11.76
2023-04-16T13:02:37.008Z,11.80
2023-04-16T13:03:39.492Z,11.81
2023-04-16T13:04:41.878Z,11.83
2023-04-16T13:05:45.806Z,11.82
2023-04-16T13:06:49.704Z,11.84
2023-04-16T13:07:53.596Z,11.87
2023-04-16T13:08:57.484Z,11.91
2023-04-16T13:09:59.852Z,11.93
2023-04-16T13:11:02.329Z,12.01
2023-04-16T13:12:06.324Z,12.06
2023-04-16T13:13:10.252Z,12.12
2023-04-16T13:14:12.551Z,12.18
2023-04-16T13:15:15.061Z,12.25
2023-04-16T13:16:19.299Z,12.29
2023-04-16T13:17:21.669Z,12.34
2023-04-16T13:18:24.065Z,12.36
2023-04-16T13:19:26.557Z,12.42
2023-04-16T13:20:30.546Z,12.51
2023-04-16T13:21:34.543Z,12.57
2023-04-16T13:22:36.865Z,12.65
2023-04-16T13:23:39.308Z,12.72
2023-04-16T13:24:41.634Z,12.79
2023-04-16T13:25:44.082Z,12.86
2023-04-16T13:26:48.100Z,12.89
2023-04-16T13:27:52.082Z,12.95
2023-04-16T13:28:56.010Z,13.02
2023-04-16T13:29:59.856Z,13.05
2023-04-16T13:31:05.140Z,13.10
2023-04-16T13:32:06.366Z,13.12
2023-04-16T13:33:10.214Z,13.16
2023-04-16T13:34:12.617Z,13.20
2023-04-16T13:35:14.960Z,13.23
2023-04-16T13:36:17.470Z,13.26
2023-04-16T13:37:21.452Z,13.27
2023-04-16T13:39:27.825Z,13.28
2023-04-16T13:40:30.238Z,13.27
2023-04-16T13:41:34.285Z,13.31
2023-04-16T13:42:38.232Z,13.30
2023-04-16T13:43:40.513Z,13.34
2023-04-16T13:44:43.012Z,13.35
2023-04-16T13:45:47.049Z,13.34
2023-04-16T13:47:54.841Z,13.32
2023-04-16T13:48:58.718Z,13.29
2023-04-16T13:51:04.981Z,13.28
2023-04-16T13:52:09.033Z,13.30
2023-04-16T13:54:15.326Z,13.31
2023-04-16T13:55:17.864Z,13.36
2023-04-16T13:57:22.726Z,13.40
2023-04-16T13:58:26.720Z,13.42
2023-04-16T13:59:30.675Z,13.43
2023-04-16T14:00:33.156Z,13.48
2023-04-16T14:01:35.869Z,13.51
2023-04-16T14:02:40.229Z,13.58
2023-04-16T14:03:44.159Z,13.64
2023-04-16T14:04:46.747Z,13.68
2023-04-16T14:05:50.959Z,13.74
2023-04-16T14:06:53.441Z,13.78
2023-04-16T14:07:56.061Z,13.81
2023-04-16T14:09:00.301Z,13.79
2023-04-16T14:10:02.758Z,13.80
2023-04-16T14:11:07.131Z,13.79
2023-04-16T14:12:11.268Z,13.81
2023-04-16T14:13:13.839Z,13.83
2023-04-16T14:14:16.509Z,13.86
2023-04-16T14:15:20.750Z,13.87
2023-04-16T14:16:23.366Z,13.89
2023-04-16T14:17:25.843Z,13.96
2023-04-16T14:18:30.158Z,14.03
2023-04-16T14:19:32.854Z,14.07
2023-04-16T14:20:37.000Z,14.13
2023-04-16T14:21:41.217Z,14.17
2023-04-16T14:22:43.776Z,14.21
2023-04-16T14:23:48.549Z,14.25
2023-04-16T14:24:51.171Z,14.26
2023-04-16T14:25:53.824Z,14.28
2023-04-16T14:26:56.387Z,14.29
2023-04-16T14:27:59.059Z,14.27
2023-04-16T14:29:01.672Z,14.30
2023-04-16T14:30:04.344Z,14.33
2023-04-16T14:31:07.017Z,14.39
2023-04-16T14:32:09.810Z,14.45
2023-04-16T14:33:13.989Z,14.53
2023-04-16T14:34:16.381Z,14.60
2023-04-16T14:35:19.025Z,14.63
2023-04-16T14:36:23.287Z,14.66
2023-04-16T14:37:25.813Z,14.78
2023-04-16T14:38:28.687Z,14.85
2023-04-16T14:39:31.268Z,14.86
2023-04-16T14:40:34.015Z,14.88
2023-04-16T14:41:36.650Z,14.94
2023-04-16T14:42:39.316Z,14.95
2023-04-16T14:43:42.019Z,14.98
2023-04-16T14:44:44.653Z,15.01
2023-04-16T14:46:51.561Z,15.03
2023-04-16T14:47:55.882Z,14.99
2023-04-16T14:48:58.258Z,14.91
2023-04-16T14:50:00.938Z,14.83
2023-04-16T14:51:05.151Z,14.80
2023-04-16T14:52:09.278Z,14.75
2023-04-16T14:53:11.932Z,14.74
2023-04-16T14:54:14.450Z,14.76
2023-04-16T14:55:18.674Z,14.79
2023-04-16T14:56:22.933Z,14.80
2023-04-16T14:57:26.925Z,14.81
2023-04-16T14:58:31.010Z,14.83
2023-04-16T14:59:35.327Z,14.88
2023-04-16T15:00:38.081Z,15.00
2023-04-16T15:01:40.690Z,15.01
2023-04-16T15:03:47.596Z,15.02
2023-04-16T15:05:54.303Z,14.99
2023-04-16T15:06:56.952Z,15.01
2023-04-16T15:07:59.598Z,15.00
2023-04-16T15:09:02.302Z,15.03
2023-04-16T15:10:04.930Z,15.06
2023-04-16T15:11:07.566Z,15.09
2023-04-16T15:12:00.308Z,15.05
2023-04-16T15:14:17.182Z,15.05
2023-04-16T15:16:25.555Z,15.05
2023-04-16T15:26:13.208Z,14.85
2023-04-16T15:38:34.368Z,14.82
2023-04-16T15:39:38.577Z,14.77
2023-04-16T15:40:41.188Z,14.74
2023-04-16T15:41:57.322Z,14.70
2023-04-16T15:42:47.997Z,14.65
2023-04-16T15:43:52.169Z,14.63
2023-04-16T15:44:56.185Z,14.60
2023-04-16T15:46:00.222Z,14.54
2023-04-16T15:47:02.678Z,14.53
2023-04-16T15:48:05.350Z,14.51
2023-04-16T15:50:12.239Z,14.49
2023-04-16T15:51:14.932Z,14.47
2023-04-16T15:52:17.586Z,14.45
2023-04-16T15:53:20.184Z,14.44
2023-04-16T15:54:24.438Z,14.46
2023-04-16T15:56:29.459Z,14.47
2023-04-16T15:57:32.096Z,14.45
2023-04-16T15:59:40.486Z,14.51
2023-04-16T16:00:43.020Z,14.57
2023-04-16T16:01:45.654Z,14.59
2023-04-16T16:02:49.995Z,14.61
2023-04-16T16:03:52.646Z,14.62
2023-04-16T16:04:56.680Z,14.64
2023-04-16T16:05:59.461Z,14.68
2023-04-16T16:07:01.733Z,14.66
2023-04-16T16:08:04.298Z,14.65
2023-04-16T16:09:08.659Z,14.62
2023-04-16T16:10:12.415Z,14.61
2023-04-16T16:11:16.431Z,14.65
2023-04-16T16:12:20.371Z,14.78
2023-04-16T16:13:22.681Z,14.83
2023-04-16T16:23:05.558Z,14.8
2023-04-16T16:37:19.652Z,14.52
2023-04-16T16:51:31.059Z,14.35
2023-04-16T17:05:43.901Z,14.17
2023-04-16T17:19:56.042Z,13.66
2023-04-16T17:34:08.336Z,13.16
2023-04-16T17:48:20.315Z,12.65
2023-04-16T18:02:33.148Z,12.21
2023-04-16T18:16:45.728Z,11.83
2023-04-16T18:30:59.070Z,11.41
2023-04-16T18:45:09.940Z,11.09
2023-04-16T18:59:21.988Z,10.97
2023-04-16T19:13:34.872Z,10.87
2023-04-16T19:27:48.779Z,10.78
2023-04-16T19:41:59.979Z,10.7
2023-04-16T19:56:12.658Z,10.61
2023-04-16T20:10:25.777Z,10.45
2023-04-16T20:24:37.734Z,10.2
2023-04-16T20:38:51.535Z,10.06
2023-04-16T20:53:02.727Z,10.09
2023-04-16T21:21:28.028Z,10.01
2023-04-16T21:35:40.230Z,9.97
2023-04-16T21:49:52.143Z,9.95
2023-04-16T22:04:05.659Z,9.97
2023-04-16T22:18:18.325Z,10.01
2023-04-16T22:23:49.420Z,10.03
2023-04-16T22:32:31.543Z,10
2023-04-16T22:46:42.845Z,9.89
2023-04-16T23:00:55.369Z,9.86
2023-04-16T23:15:10.504Z,9.8
2023-04-16T23:29:17.871Z,9.67
2023-04-16T23:43:30.372Z,9.54
2023-04-16T23:57:42.907Z,9.53
